sensor_id;sensor_type;location;lat;lon;timestamp;pressure;altitude;pressure_sealevel;temperature;humidity
11808;BME280;5961;42.640;23.380;2024-03-25T00:02:12;92767.84;;;5.51;100.00
11808;BME280;5961;42.640;23.380;2024-03-25T00:04:37;92774.97;;;5.39;100.00
11808;BME280;5961;42.640;23.380;2024-03-25T00:07:04;92758.50;;;5.30;100.00
11808;BME280;5961;42.640;23.380;2024-03-25T00:09:30;92782.44;;;5.25;100.00
11808;BME280;5961;42.640;23.380;2024-03-25T00:11:57;92760.38;;;5.17;100.00
11808;BME280;5961;42.640;23.380;2024-03-25T00:14:24;92775.63;;;5.12;100.00
11808;BME280;5961;42.640;23.380;2024-03-25T00:16:50;92756.88;;;5.01;100.00
11808;BME280;5961;42.640;23.380;2024-03-25T00:19:16;92756.88;;;5.01;100.00
11808;BME280;5961;42.640;23.380;2024-03-25T00:21:43;92722.28;;;4.78;100.00
11808;BME280;5961;42.640;23.380;2024-03-25T00:24:09;92753.88;;;5.03;100.00
11808;BME280;5961;42.640;23.380;2024-03-25T00:26:36;92762.44;;;5.12;100.00
11808;BME280;5961;42.640;23.380;2024-03-25T00:29:02;92746.78;;;5.15;100.00
11808;BME280;5961;42.640;23.380;2024-03-25T00:31:30;92748.41;;;5.20;100.00
11808;BME280;5961;42.640;23.380;2024-03-25T00:33:56;92742.28;;;5.16;100.00
11808;BME280;5961;42.640;23.380;2024-03-25T00:36:22;92746.66;;;5.12;100.00
11808;BME280;5961;42.640;23.380;2024-03-25T00:38:48;92737.00;;;5.28;100.00
11808;BME280;5961;42.640;23.380;2024-03-25T00:41:15;92742.94;;;5.37;100.00
11808;BME280;5961;42.640;23.380;2024-03-25T00:43:40;92746.75;;;5.39;100.00
11808;BME280;5961;42.640;23.380;2024-03-25T00:46:08;92741.78;;;5.50;100.00
11808;BME280;5961;42.640;23.380;2024-03-25T00:48:45;92750.34;;;5.59;100.00
11808;BME280;5961;42.640;23.380;2024-03-25T00:51:12;92747.41;;;5.61;100.00
11808;BME280;5961;42.640;23.380;2024-03-25T00:53:38;92739.47;;;5.73;100.00
11808;BME280;5961;42.640;23.380;2024-03-25T00:56:05;92728.59;;;5.62;100.00
11808;BME280;5961;42.640;23.380;2024-03-25T00:58:32;92731.16;;;5.59;100.00
11808;BME280;5961;42.640;23.380;2024-03-25T01:00:57;92725.53;;;5.60;100.00
11808;BME280;5961;42.640;23.380;2024-03-25T01:03:24;92730.38;;;5.58;100.00
11808;BME280;5961;42.640;23.380;2024-03-25T01:05:51;92745.19;;;5.63;100.00
11808;BME280;5961;42.640;23.380;2024-03-25T01:08:18;92736.97;;;5.52;100.00
11808;BME280;5961;42.640;23.380;2024-03-25T01:10:45;92740.72;;;5.51;100.00
11808;BME280;5961;42.640;23.380;2024-03-25T01:13:12;92718.00;;;5.46;100.00
11808;BME280;5961;42.640;23.380;2024-03-25T01:15:37;92718.41;;;5.61;100.00
11808;BME280;5961;42.640;23.380;2024-03-25T01:18:04;92694.38;;;5.50;100.00
11808;BME280;5961;42.640;23.380;2024-03-25T01:20:30;92709.88;;;5.51;100.00
11808;BME280;5961;42.640;23.380;2024-03-25T01:22:58;92713.25;;;5.64;100.00
11808;BME280;5961;42.640;23.380;2024-03-25T01:25:24;92704.28;;;5.81;100.00
11808;BME280;5961;42.640;23.380;2024-03-25T01:27:50;92707.16;;;5.88;100.00
11808;BME280;5961;42.640;23.380;2024-03-25T01:30:17;92707.16;;;5.88;100.00
11808;BME280;5961;42.640;23.380;2024-03-25T01:32:44;92713.63;;;5.90;100.00
11808;BME280;5961;42.640;23.380;2024-03-25T01:35:12;92712.41;;;6.00;100.00
11808;BME280;5961;42.640;23.380;2024-03-25T01:37:38;92722.03;;;6.08;100.00
11808;BME280;5961;42.640;23.380;2024-03-25T01:40:07;92714.31;;;6.15;100.00
11808;BME280;5961;42.640;23.380;2024-03-25T01:42:35;92706.41;;;6.15;100.00
11808;BME280;5961;42.640;23.380;2024-03-25T01:45:01;92708.28;;;6.15;100.00
11808;BME280;5961;42.640;23.380;2024-03-25T01:47:28;92713.84;;;6.25;100.00
11808;BME280;5961;42.640;23.380;2024-03-25T01:49:55;92705.13;;;6.09;100.00
11808;BME280;5961;42.640;23.380;2024-03-25T01:52:22;92715.19;;;6.19;100.00
11808;BME280;5961;42.640;23.380;2024-03-25T01:54:49;92706.63;;;6.22;100.00
11808;BME280;5961;42.640;23.380;2024-03-25T01:57:17;92702.78;;;6.35;100.00
11808;BME280;5961;42.640;23.380;2024-03-25T01:59:44;92705.09;;;6.37;100.00
11808;BME280;5961;42.640;23.380;2024-03-25T02:02:12;92714.03;;;6.32;100.00
11808;BME280;5961;42.640;23.380;2024-03-25T02:04:38;92729.59;;;6.22;100.00
11808;BME280;5961;42.640;23.380;2024-03-25T02:07:07;92735.56;;;6.06;100.00
11808;BME280;5961;42.640;23.380;2024-03-25T02:09:34;92733.84;;;5.86;100.00
11808;BME280;5961;42.640;23.380;2024-03-25T02:12:01;92754.41;;;5.69;100.00
11808;BME280;5961;42.640;23.380;2024-03-25T02:14:28;92738.81;;;5.76;100.00
11808;BME280;5961;42.640;23.380;2024-03-25T02:16:55;92733.63;;;5.79;100.00
11808;BME280;5961;42.640;23.380;2024-03-25T02:19:22;92743.09;;;5.68;100.00
11808;BME280;5961;42.640;23.380;2024-03-25T02:21:50;92749.25;;;5.60;100.00
11808;BME280;5961;42.640;23.380;2024-03-25T02:24:15;92740.06;;;5.42;100.00
11808;BME280;5961;42.640;23.380;2024-03-25T02:26:45;92741.81;;;5.26;100.00
11808;BME280;5961;42.640;23.380;2024-03-25T02:29:11;92731.28;;;5.26;100.00
11808;BME280;5961;42.640;23.380;2024-03-25T02:31:37;92729.53;;;5.30;100.00
11808;BME280;5961;42.640;23.380;2024-03-25T02:34:03;92722.84;;;5.20;100.00
11808;BME280;5961;42.640;23.380;2024-03-25T02:36:30;92734.38;;;5.28;100.00
11808;BME280;5961;42.640;23.380;2024-03-25T02:38:55;92739.84;;;5.35;100.00
11808;BME280;5961;42.640;23.380;2024-03-25T02:41:22;92733.06;;;5.34;100.00
11808;BME280;5961;42.640;23.380;2024-03-25T02:43:51;92730.66;;;5.17;100.00
11808;BME280;5961;42.640;23.380;2024-03-25T02:46:18;92735.03;;;5.13;100.00
11808;BME280;5961;42.640;23.380;2024-03-25T02:48:45;92738.97;;;5.19;100.00
11808;BME280;5961;42.640;23.380;2024-03-25T02:51:12;92748.41;;;5.20;100.00
11808;BME280;5961;42.640;23.380;2024-03-25T02:53:38;92748.31;;;5.16;100.00
11808;BME280;5961;42.640;23.380;2024-03-25T02:56:05;92747.97;;;5.30;100.00
11808;BME280;5961;42.640;23.380;2024-03-25T02:58:31;92748.50;;;5.23;100.00
11808;BME280;5961;42.640;23.380;2024-03-25T03:00:59;92747.31;;;5.21;100.00
11808;BME280;5961;42.640;23.380;2024-03-25T03:03:24;92748.63;;;5.03;100.00
11808;BME280;5961;42.640;23.380;2024-03-25T03:05:51;92774.75;;;4.95;100.00
11808;BME280;5961;42.640;23.380;2024-03-25T03:08:17;92749.06;;;4.92;100.00
11808;BME280;5961;42.640;23.380;2024-03-25T03:10:43;92769.03;;;5.06;100.00
11808;BME280;5961;42.640;23.380;2024-03-25T03:13:09;92818.38;;;4.96;100.00
11808;BME280;5961;42.640;23.380;2024-03-25T03:15:36;92778.22;;;4.87;100.00
11808;BME280;5961;42.640;23.380;2024-03-25T03:18:04;92775.03;;;4.82;100.00
11808;BME280;5961;42.640;23.380;2024-03-25T03:20:30;92781.19;;;4.86;100.00
11808;BME280;5961;42.640;23.380;2024-03-25T03:22:56;92773.06;;;4.91;100.00
11808;BME280;5961;42.640;23.380;2024-03-25T03:25:23;92779.75;;;4.88;100.00
11808;BME280;5961;42.640;23.380;2024-03-25T03:27:48;92770.13;;;4.92;100.00
11808;BME280;5961;42.640;23.380;2024-03-25T03:30:15;92784.06;;;5.05;100.00
11808;BME280;5961;42.640;23.380;2024-03-25T03:32:41;92800.88;;;5.13;100.00
11808;BME280;5961;42.640;23.380;2024-03-25T03:35:09;92778.47;;;5.19;99.91
11808;BME280;5961;42.640;23.380;2024-03-25T03:37:35;92787.47;;;5.06;99.66
11808;BME280;5961;42.640;23.380;2024-03-25T03:40:01;92793.63;;;5.22;99.67
11808;BME280;5961;42.640;23.380;2024-03-25T03:42:30;92783.28;;;5.29;100.00
11808;BME280;5961;42.640;23.380;2024-03-25T03:44:57;92787.91;;;5.32;98.93
11808;BME280;5961;42.640;23.380;2024-03-25T03:47:23;92780.22;;;5.39;99.29
11808;BME280;5961;42.640;23.380;2024-03-25T03:49:49;92790.09;;;5.54;98.14
11808;BME280;5961;42.640;23.380;2024-03-25T03:52:16;92789.34;;;5.53;96.10
11808;BME280;5961;42.640;23.380;2024-03-25T03:54:43;92799.34;;;5.48;95.19
11808;BME280;5961;42.640;23.380;2024-03-25T03:57:09;92791.31;;;5.57;96.51
11808;BME280;5961;42.640;23.380;2024-03-25T03:59:35;92794.28;;;5.67;95.79
11808;BME280;5961;42.640;23.380;2024-03-25T04:02:01;92820.31;;;5.57;95.14
11808;BME280;5961;42.640;23.380;2024-03-25T04:04:28;92805.03;;;5.50;94.64
11808;BME280;5961;42.640;23.380;2024-03-25T04:06:54;92820.53;;;5.39;94.76
11808;BME280;5961;42.640;23.380;2024-03-25T04:09:22;92831.06;;;5.39;95.62
11808;BME280;5961;42.640;23.380;2024-03-25T04:11:48;92852.44;;;5.38;95.29
11808;BME280;5961;42.640;23.380;2024-03-25T04:14:15;92827.09;;;5.33;95.59
11808;BME280;5961;42.640;23.380;2024-03-25T04:16:41;92846.88;;;5.39;96.04
11808;BME280;5961;42.640;23.380;2024-03-25T04:19:08;92828.31;;;5.36;96.62
11808;BME280;5961;42.640;23.380;2024-03-25T04:21:33;92847.41;;;5.33;96.55
11808;BME280;5961;42.640;23.380;2024-03-25T04:24:00;92843.91;;;5.41;95.45
11808;BME280;5961;42.640;23.380;2024-03-25T04:26:27;92836.44;;;5.43;93.53
11808;BME280;5961;42.640;23.380;2024-03-25T04:28:54;92852.03;;;5.36;94.45
11808;BME280;5961;42.640;23.380;2024-03-25T04:31:19;92856.84;;;5.34;93.90
11808;BME280;5961;42.640;23.380;2024-03-25T04:33:46;92856.31;;;5.28;94.27
11808;BME280;5961;42.640;23.380;2024-03-25T04:36:12;92854.97;;;5.22;94.65
11808;BME280;5961;42.640;23.380;2024-03-25T04:38:39;92882.66;;;5.28;94.49
11808;BME280;5961;42.640;23.380;2024-03-25T04:41:05;92878.31;;;5.12;92.74
11808;BME280;5961;42.640;23.380;2024-03-25T04:43:32;92890.41;;;5.13;94.12
11808;BME280;5961;42.640;23.380;2024-03-25T04:46:00;92882.72;;;5.08;94.61
11808;BME280;5961;42.640;23.380;2024-03-25T04:48:26;92905.53;;;5.16;94.72
11808;BME280;5961;42.640;23.380;2024-03-25T04:50:52;92895.41;;;5.06;94.79
11808;BME280;5961;42.640;23.380;2024-03-25T04:53:17;92914.09;;;5.13;93.88
11808;BME280;5961;42.640;23.380;2024-03-25T04:55:43;92922.22;;;5.08;94.43
11808;BME280;5961;42.640;23.380;2024-03-25T04:58:09;92912.97;;;5.02;94.60
11808;BME280;5961;42.640;23.380;2024-03-25T05:00:36;92897.22;;;5.14;94.65
11808;BME280;5961;42.640;23.380;2024-03-25T05:03:02;92893.91;;;5.05;94.91
11808;BME280;5961;42.640;23.380;2024-03-25T05:05:27;92901.78;;;5.05;94.54
11808;BME280;5961;42.640;23.380;2024-03-25T05:07:53;92900.56;;;5.02;95.07
11808;BME280;5961;42.640;23.380;2024-03-25T05:10:19;92901.03;;;5.04;94.58
11808;BME280;5961;42.640;23.380;2024-03-25T05:12:45;92907.31;;;4.91;94.17
11808;BME280;5961;42.640;23.380;2024-03-25T05:15:11;92895.63;;;5.01;94.60
11808;BME280;5961;42.640;23.380;2024-03-25T05:17:38;92901.44;;;5.06;95.14
11808;BME280;5961;42.640;23.380;2024-03-25T05:20:04;92906.41;;;5.20;94.72
11808;BME280;5961;42.640;23.380;2024-03-25T05:22:30;92915.94;;;5.12;94.44
11808;BME280;5961;42.640;23.380;2024-03-25T05:24:56;92918.47;;;5.09;94.86
11808;BME280;5961;42.640;23.380;2024-03-25T05:27:22;92936.16;;;5.20;94.38
11808;BME280;5961;42.640;23.380;2024-03-25T05:29:48;92943.00;;;5.01;93.45
11808;BME280;5961;42.640;23.380;2024-03-25T05:32:14;92924.97;;;4.90;94.27
11808;BME280;5961;42.640;23.380;2024-03-25T05:34:41;92973.56;;;4.93;94.80
11808;BME280;5961;42.640;23.380;2024-03-25T05:37:07;92941.03;;;4.97;93.78
11808;BME280;5961;42.640;23.380;2024-03-25T05:39:33;92902.09;;;4.70;93.30
11808;BME280;5961;42.640;23.380;2024-03-25T05:41:58;92934.16;;;4.84;93.58
11808;BME280;5961;42.640;23.380;2024-03-25T05:44:24;92936.34;;;4.82;93.61
11808;BME280;5961;42.640;23.380;2024-03-25T05:46:50;92945.59;;;4.88;94.50
11808;BME280;5961;42.640;23.380;2024-03-25T05:49:16;92935.63;;;4.94;94.79
11808;BME280;5961;42.640;23.380;2024-03-25T05:51:43;92942.06;;;4.84;93.38
11808;BME280;5961;42.640;23.380;2024-03-25T05:54:08;92935.72;;;4.85;94.50
11808;BME280;5961;42.640;23.380;2024-03-25T05:56:34;92955.84;;;5.02;93.34
11808;BME280;5961;42.640;23.380;2024-03-25T05:59:00;92958.38;;;4.98;92.96
11808;BME280;5961;42.640;23.380;2024-03-25T06:01:26;92964.06;;;5.01;92.07
11808;BME280;5961;42.640;23.380;2024-03-25T06:03:52;92974.81;;;4.95;92.26
11808;BME280;5961;42.640;23.380;2024-03-25T06:06:18;92984.44;;;4.91;91.64
11808;BME280;5961;42.640;23.380;2024-03-25T06:08:45;92989.50;;;4.96;92.11
11808;BME280;5961;42.640;23.380;2024-03-25T06:11:11;92988.16;;;4.90;93.01
11808;BME280;5961;42.640;23.380;2024-03-25T06:13:37;93016.28;;;4.98;92.38
11808;BME280;5961;42.640;23.380;2024-03-25T06:16:03;93025.22;;;4.85;91.94
11808;BME280;5961;42.640;23.380;2024-03-25T06:18:29;92984.69;;;4.98;92.75
11808;BME280;5961;42.640;23.380;2024-03-25T06:20:55;92981.47;;;4.93;91.68
11808;BME280;5961;42.640;23.380;2024-03-25T06:23:24;92980.09;;;4.95;92.89
11808;BME280;5961;42.640;23.380;2024-03-25T06:25:52;93009.47;;;4.97;92.21
11808;BME280;5961;42.640;23.380;2024-03-25T06:28:18;93011.13;;;5.02;92.05
11808;BME280;5961;42.640;23.380;2024-03-25T06:30:45;93017.22;;;5.15;92.62
11808;BME280;5961;42.640;23.380;2024-03-25T06:33:29;93002.97;;;5.16;91.27
11808;BME280;5961;42.640;23.380;2024-03-25T06:36:14;93010.25;;;5.19;90.71
11808;BME280;5961;42.640;23.380;2024-03-25T06:38:39;93011.38;;;5.30;91.51
11808;BME280;5961;42.640;23.380;2024-03-25T06:41:07;93052.03;;;5.41;90.86
11808;BME280;5961;42.640;23.380;2024-03-25T06:43:32;93035.78;;;5.39;88.67
11808;BME280;5961;42.640;23.380;2024-03-25T06:45:58;93035.09;;;5.30;88.19
11808;BME280;5961;42.640;23.380;2024-03-25T06:48:24;93028.09;;;5.34;89.66
11808;BME280;5961;42.640;23.380;2024-03-25T06:50:53;93028.31;;;5.41;89.05
11808;BME280;5961;42.640;23.380;2024-03-25T06:53:19;93028.91;;;5.26;88.86
11808;BME280;5961;42.640;23.380;2024-03-25T06:55:51;93034.63;;;5.28;88.97
11808;BME280;5961;42.640;23.380;2024-03-25T06:58:19;93028.72;;;5.31;89.07
11808;BME280;5961;42.640;23.380;2024-03-25T07:00:45;93048.50;;;5.37;89.76
11808;BME280;5961;42.640;23.380;2024-03-25T07:03:10;93049.94;;;5.34;88.19
11808;BME280;5961;42.640;23.380;2024-03-25T07:05:36;93079.22;;;5.33;88.79
11808;BME280;5961;42.640;23.380;2024-03-25T07:08:02;93046.19;;;5.35;89.31
11808;BME280;5961;42.640;23.380;2024-03-25T07:10:28;93066.75;;;5.42;88.92
11808;BME280;5961;42.640;23.380;2024-03-25T07:12:53;93086.97;;;5.50;88.10
11808;BME280;5961;42.640;23.380;2024-03-25T07:15:21;93070.72;;;5.48;87.03
11808;BME280;5961;42.640;23.380;2024-03-25T07:17:52;93062.22;;;5.63;86.93
11808;BME280;5961;42.640;23.380;2024-03-25T07:20:18;93052.56;;;5.67;87.93
11808;BME280;5961;42.640;23.380;2024-03-25T07:22:44;93067.75;;;5.70;87.21
11808;BME280;5961;42.640;23.380;2024-03-25T07:25:10;93059.75;;;5.79;86.38
11808;BME280;5961;42.640;23.380;2024-03-25T07:27:36;93073.25;;;5.77;87.61
11808;BME280;5961;42.640;23.380;2024-03-25T07:30:02;93073.66;;;5.88;86.92
11808;BME280;5961;42.640;23.380;2024-03-25T07:32:29;93062.09;;;5.92;85.73
11808;BME280;5961;42.640;23.380;2024-03-25T07:34:55;93081.47;;;5.96;85.19
11808;BME280;5961;42.640;23.380;2024-03-25T07:37:21;93084.44;;;5.95;84.97
11808;BME280;5961;42.640;23.380;2024-03-25T07:39:46;93087.38;;;5.93;84.35
11808;BME280;5961;42.640;23.380;2024-03-25T07:42:13;93093.47;;;5.73;83.81
11808;BME280;5961;42.640;23.380;2024-03-25T07:44:39;93066.63;;;5.71;84.32
11808;BME280;5961;42.640;23.380;2024-03-25T07:47:05;93087.53;;;5.76;84.39
11808;BME280;5961;42.640;23.380;2024-03-25T07:49:32;93098.47;;;5.87;83.89
11808;BME280;5961;42.640;23.380;2024-03-25T07:51:58;93061.03;;;5.93;83.85
11808;BME280;5961;42.640;23.380;2024-03-25T07:54:24;93080.41;;;6.10;84.22
11808;BME280;5961;42.640;23.380;2024-03-25T07:56:50;93075.03;;;6.18;84.21
11808;BME280;5961;42.640;23.380;2024-03-25T07:59:18;93070.97;;;6.21;83.89
11808;BME280;5961;42.640;23.380;2024-03-25T08:01:44;93089.88;;;6.23;82.36
11808;BME280;5961;42.640;23.380;2024-03-25T08:04:10;93072.72;;;6.17;81.74
11808;BME280;5961;42.640;23.380;2024-03-25T08:06:37;93124.63;;;6.25;80.18
11808;BME280;5961;42.640;23.380;2024-03-25T08:09:03;93105.28;;;6.33;81.27
11808;BME280;5961;42.640;23.380;2024-03-25T08:11:29;93085.94;;;6.41;80.23
11808;BME280;5961;42.640;23.380;2024-03-25T08:13:55;93087.91;;;6.44;80.73
11808;BME280;5961;42.640;23.380;2024-03-25T08:16:20;93106.19;;;6.49;81.03
11808;BME280;5961;42.640;23.380;2024-03-25T08:18:46;93112.56;;;6.48;81.27
11808;BME280;5961;42.640;23.380;2024-03-25T08:21:12;93113.00;;;6.50;82.41
11808;BME280;5961;42.640;23.380;2024-03-25T08:23:39;93094.31;;;6.43;80.97
11808;BME280;5961;42.640;23.380;2024-03-25T08:26:05;93151.91;;;6.41;79.63
11808;BME280;5961;42.640;23.380;2024-03-25T08:28:31;93118.28;;;6.50;78.20
11808;BME280;5961;42.640;23.380;2024-03-25T08:30:57;93107.72;;;6.62;80.22
11808;BME280;5961;42.640;23.380;2024-03-25T08:33:22;93103.69;;;6.65;82.25
11808;BME280;5961;42.640;23.380;2024-03-25T08:35:49;93119.72;;;6.72;80.51
11808;BME280;5961;42.640;23.380;2024-03-25T08:38:15;93111.69;;;6.68;80.45
11808;BME280;5961;42.640;23.380;2024-03-25T08:40:42;93106.75;;;6.67;80.09
11808;BME280;5961;42.640;23.380;2024-03-25T08:43:08;93124.03;;;6.76;79.68
11808;BME280;5961;42.640;23.380;2024-03-25T08:45:33;93109.06;;;6.80;80.25
11808;BME280;5961;42.640;23.380;2024-03-25T08:47:59;93115.56;;;6.83;78.97
11808;BME280;5961;42.640;23.380;2024-03-25T08:50:25;93134.38;;;6.81;77.74
11808;BME280;5961;42.640;23.380;2024-03-25T08:52:50;93099.59;;;6.79;77.49
11808;BME280;5961;42.640;23.380;2024-03-25T08:55:16;93148.66;;;6.92;78.74
11808;BME280;5961;42.640;23.380;2024-03-25T08:57:43;93136.69;;;6.95;79.14
11808;BME280;5961;42.640;23.380;2024-03-25T09:00:10;93165.63;;;6.91;77.61
11808;BME280;5961;42.640;23.380;2024-03-25T09:02:36;93143.19;;;6.85;75.89
11808;BME280;5961;42.640;23.380;2024-03-25T09:05:02;93186.09;;;6.82;76.27
11808;BME280;5961;42.640;23.380;2024-03-25T09:07:28;93134.59;;;6.88;77.38
11808;BME280;5961;42.640;23.380;2024-03-25T09:09:54;93125.25;;;6.91;77.66
11808;BME280;5961;42.640;23.380;2024-03-25T09:12:38;93118.09;;;6.91;78.93
11808;BME280;5961;42.640;23.380;2024-03-25T09:15:06;93128.19;;;6.89;78.37
11808;BME280;5961;42.640;23.380;2024-03-25T09:17:32;93134.13;;;6.86;77.23
11808;BME280;5961;42.640;23.380;2024-03-25T09:19:58;93139.00;;;6.84;76.38
11808;BME280;5961;42.640;23.380;2024-03-25T09:22:23;93160.47;;;6.83;76.73
11808;BME280;5961;42.640;23.380;2024-03-25T09:24:49;93145.16;;;6.76;77.37
11808;BME280;5961;42.640;23.380;2024-03-25T09:27:15;93162.31;;;6.82;77.72
11808;BME280;5961;42.640;23.380;2024-03-25T09:29:41;93145.16;;;6.76;78.28
11808;BME280;5961;42.640;23.380;2024-03-25T09:32:08;93177.63;;;6.77;76.40
11808;BME280;5961;42.640;23.380;2024-03-25T09:34:34;93159.03;;;6.85;77.34
11808;BME280;5961;42.640;23.380;2024-03-25T09:37:00;93179.38;;;6.85;75.97
11808;BME280;5961;42.640;23.380;2024-03-25T09:39:25;93162.88;;;6.88;75.52
11808;BME280;5961;42.640;23.380;2024-03-25T09:41:55;93160.66;;;6.90;76.08
11808;BME280;5961;42.640;23.380;2024-03-25T09:44:22;93152.75;;;7.02;76.57
11808;BME280;5961;42.640;23.380;2024-03-25T09:46:50;93148.78;;;7.08;76.89
11808;BME280;5961;42.640;23.380;2024-03-25T09:49:17;93135.44;;;7.16;76.44
11808;BME280;5961;42.640;23.380;2024-03-25T09:51:43;93160.34;;;7.28;74.14
11808;BME280;5961;42.640;23.380;2024-03-25T09:54:08;93149.75;;;7.40;75.29
11808;BME280;5961;42.640;23.380;2024-03-25T09:56:35;93152.81;;;7.42;74.28
11808;BME280;5961;42.640;23.380;2024-03-25T09:59:02;93148.63;;;7.41;73.03
11808;BME280;5961;42.640;23.380;2024-03-25T10:01:29;93162.44;;;7.34;73.66
11808;BME280;5961;42.640;23.380;2024-03-25T10:03:55;93146.56;;;7.34;74.83
11808;BME280;5961;42.640;23.380;2024-03-25T10:06:22;93169.56;;;7.46;73.57
11808;BME280;5961;42.640;23.380;2024-03-25T10:08:48;93168.91;;;7.49;72.94
11808;BME280;5961;42.640;23.380;2024-03-25T10:11:15;93171.72;;;7.56;72.12
11808;BME280;5961;42.640;23.380;2024-03-25T10:13:41;93169.84;;;7.68;72.89
11808;BME280;5961;42.640;23.380;2024-03-25T10:16:07;93218.88;;;7.66;71.00
11808;BME280;5961;42.640;23.380;2024-03-25T10:18:33;93157.19;;;7.50;70.72
11808;BME280;5961;42.640;23.380;2024-03-25T10:20:59;93172.72;;;7.63;69.67
11808;BME280;5961;42.640;23.380;2024-03-25T10:23:26;93170.97;;;7.55;69.03
11808;BME280;5961;42.640;23.380;2024-03-25T10:25:52;93153.78;;;7.61;68.86
11808;BME280;5961;42.640;23.380;2024-03-25T10:28:18;93155.28;;;7.74;70.53
11808;BME280;5961;42.640;23.380;2024-03-25T10:30:44;93191.38;;;7.83;67.93
11808;BME280;5961;42.640;23.380;2024-03-25T10:33:10;93171.00;;;7.83;69.45
11808;BME280;5961;42.640;23.380;2024-03-25T10:35:36;93191.69;;;7.93;67.91
11808;BME280;5961;42.640;23.380;2024-03-25T10:38:04;93179.28;;;7.82;67.66
11808;BME280;5961;42.640;23.380;2024-03-25T10:40:32;93177.31;;;7.79;66.51
11808;BME280;5961;42.640;23.380;2024-03-25T10:43:01;93186.06;;;7.95;66.06
11808;BME280;5961;42.640;23.380;2024-03-25T10:45:29;93197.94;;;8.01;64.32
11808;BME280;5961;42.640;23.380;2024-03-25T10:47:57;93201.59;;;8.08;62.29
11808;BME280;5961;42.640;23.380;2024-03-25T10:50:26;93166.03;;;8.21;63.32
11808;BME280;5961;42.640;23.380;2024-03-25T10:52:54;93155.19;;;8.26;62.46
11808;BME280;5961;42.640;23.380;2024-03-25T10:55:20;93181.44;;;8.32;61.36
11808;BME280;5961;42.640;23.380;2024-03-25T10:57:48;93151.00;;;8.25;61.68
11808;BME280;5961;42.640;23.380;2024-03-25T11:00:15;93180.59;;;8.27;60.53
11808;BME280;5961;42.640;23.380;2024-03-25T11:02:41;93154.88;;;8.28;58.45
11808;BME280;5961;42.640;23.380;2024-03-25T11:05:08;93159.09;;;8.45;60.05
11808;BME280;5961;42.640;23.380;2024-03-25T11:07:34;93148.19;;;8.62;59.20
11808;BME280;5961;42.640;23.380;2024-03-25T11:10:04;93136.13;;;8.80;59.63
11808;BME280;5961;42.640;23.380;2024-03-25T11:12:35;93212.47;;;8.90;58.87
11808;BME280;5961;42.640;23.380;2024-03-25T11:15:02;93183.41;;;8.78;55.89
11808;BME280;5961;42.640;23.380;2024-03-25T11:17:29;93158.19;;;8.84;56.49
11808;BME280;5961;42.640;23.380;2024-03-25T11:19:54;93165.38;;;8.83;56.69
11808;BME280;5961;42.640;23.380;2024-03-25T11:22:32;93134.53;;;8.91;58.06
11808;BME280;5961;42.640;23.380;2024-03-25T11:25:05;93140.16;;;9.05;59.40
11808;BME280;5961;42.640;23.380;2024-03-25T11:27:31;93173.50;;;9.06;59.11
11808;BME280;5961;42.640;23.380;2024-03-25T11:29:57;93174.50;;;9.17;59.86
11808;BME280;5961;42.640;23.380;2024-03-25T11:32:25;93200.34;;;9.20;59.00
11808;BME280;5961;42.640;23.380;2024-03-25T11:34:52;93181.28;;;9.15;57.79
11808;BME280;5961;42.640;23.380;2024-03-25T11:37:18;93186.31;;;9.04;61.94
11808;BME280;5961;42.640;23.380;2024-03-25T11:39:43;93155.63;;;9.03;62.35
11808;BME280;5961;42.640;23.380;2024-03-25T11:42:09;93171.97;;;9.05;62.20
11808;BME280;5961;42.640;23.380;2024-03-25T11:44:36;93236.44;;;9.09;61.70
11808;BME280;5961;42.640;23.380;2024-03-25T11:47:03;93285.72;;;8.98;61.38
11808;BME280;5961;42.640;23.380;2024-03-25T11:49:30;93238.63;;;8.76;62.00
11808;BME280;5961;42.640;23.380;2024-03-25T11:51:58;93240.28;;;8.68;62.86
11808;BME280;5961;42.640;23.380;2024-03-25T11:54:27;93211.25;;;8.72;64.57
11808;BME280;5961;42.640;23.380;2024-03-25T11:56:53;93195.28;;;8.68;65.66
11808;BME280;5961;42.640;23.380;2024-03-25T11:59:19;93181.44;;;8.75;66.20
11808;BME280;5961;42.640;23.380;2024-03-25T12:01:45;93189.63;;;8.86;65.85
11808;BME280;5961;42.640;23.380;2024-03-25T12:04:11;93134.09;;;8.58;65.91
11808;BME280;5961;42.640;23.380;2024-03-25T12:06:38;93163.00;;;8.78;65.89
11808;BME280;5961;42.640;23.380;2024-03-25T12:09:04;93189.97;;;8.68;66.64
11808;BME280;5961;42.640;23.380;2024-03-25T12:11:49;93183.19;;;8.55;66.50
11808;BME280;5961;42.640;23.380;2024-03-25T12:14:15;93186.25;;;8.42;63.70
11808;BME280;5961;42.640;23.380;2024-03-25T12:16:41;93171.31;;;8.49;64.28
11808;BME280;5961;42.640;23.380;2024-03-25T12:19:07;93178.34;;;8.57;64.37
11808;BME280;5961;42.640;23.380;2024-03-25T12:21:32;93173.88;;;8.61;62.60
11808;BME280;5961;42.640;23.380;2024-03-25T12:24:00;93192.78;;;8.60;63.58
11808;BME280;5961;42.640;23.380;2024-03-25T12:26:26;93161.19;;;8.67;62.00
11808;BME280;5961;42.640;23.380;2024-03-25T12:28:52;93188.63;;;8.90;62.70
11808;BME280;5961;42.640;23.380;2024-03-25T12:31:18;93161.00;;;9.07;62.07
11808;BME280;5961;42.640;23.380;2024-03-25T12:33:44;93178.13;;;9.09;62.86
11808;BME280;5961;42.640;23.380;2024-03-25T12:36:11;93188.53;;;9.02;61.55
11808;BME280;5961;42.640;23.380;2024-03-25T12:38:38;93193.34;;;8.97;61.66
11808;BME280;5961;42.640;23.380;2024-03-25T12:41:07;93188.19;;;9.19;61.48
11808;BME280;5961;42.640;23.380;2024-03-25T12:43:34;93164.91;;;9.28;59.16
11808;BME280;5961;42.640;23.380;2024-03-25T12:46:00;93183.38;;;9.41;58.65
11808;BME280;5961;42.640;23.380;2024-03-25T12:48:26;93216.47;;;9.47;57.05
11808;BME280;5961;42.640;23.380;2024-03-25T12:50:52;93212.53;;;9.56;58.58
11808;BME280;5961;42.640;23.380;2024-03-25T12:53:18;93188.69;;;9.41;57.70
11808;BME280;5961;42.640;23.380;2024-03-25T12:55:45;93244.28;;;9.53;57.54
11808;BME280;5961;42.640;23.380;2024-03-25T12:58:12;93193.06;;;9.33;57.19
11808;BME280;5961;42.640;23.380;2024-03-25T13:00:38;93212.63;;;9.28;56.77
11808;BME280;5961;42.640;23.380;2024-03-25T13:03:05;93226.50;;;9.22;56.73
11808;BME280;5961;42.640;23.380;2024-03-25T13:05:31;93184.94;;;9.26;56.08